Saint Martinville, Louisiana
Current Conditions -  °F | °C
As of 7:53 AM on Tuesday 27 Jan 2015 (Local Time) from KARA Reporting Station
Clear Clear  
Wind Chill: 51°   Ceiling: Unl
Heat Index: 51°   Visibility: NA
Dew Point: 46°   Wind: 5mph
Humidity: 83%   Direction: 270°W
Pressure: 30.12"   Gusts: NA
Location:  30.13°N, 91.83°W
Report Text: KARA 271353Z 27004KT CLR 11/08 A3012 RMK AO2 SLP199 T01060078
Loading
Personal Weather Stations






























Interactive Weather Map New forecast layout! Learn more

10-Day Weather Forecast

Advertisements
Track Severe Weather on mobile